Flight Track Log - Related Links

Times and Time Zones

All times are in EDT time to prevent confusion due to time zone crossing. See the N42HN flight status page for this flight to view local times or setup timezone preferences in your user account.

Time Position Orientation Groundspeed Altitude Reporting Facility
EDT Latitude Longitude Course Direction KTS MPH feet Rate Location/Type
Fri 10:17:29 AM 40.8125 -74.1819 217° Southwest 240 276 2,800  Level New York Center
Fri 10:18:27 AM 40.8142 -74.2614 272° West 225 259 7,200 3,966 Climbing New York Center
Fri 10:19:27 AM 40.8014 -74.3431 258° West 243 280 10,600 2,164 Climbing New York Center
Fri 10:20:29 AM 40.7672 -74.4344 244° Southwest 269 310 11,600 1,180 Climbing New York Center
Fri 10:21:29 AM 40.7258 -74.5636 247° West 327 376 13,000 1,627 Climbing New York Center
Fri 10:22:00 AM 40.6244 -74.7756 217° Southwest  Level FlightAware Approximate
Fri 10:22:27 AM 40.6819 -74.6897 245° Southwest 376 433 14,800  Level New York Center
Fri 10:23:29 AM 40.6381 -74.8158 245° Southwest 376 433 16,200 1,171 Climbing New York Center
Fri 10:24:30 AM 40.5967 -74.9336 245° Southwest 386 444 17,200 966 Climbing New York Center
Fri 10:25:27 AM 40.5372 -75.0747 241° Southwest 398 458 18,100 966 Climbing New York Center
Fri 10:26:28 AM 40.4644 -75.1819 228° Southwest 407 468 19,100 1,000 Climbing New York Center
Fri 10:27:27 AM 40.3911 -75.3028 231° Southwest 413 475 20,100 908 Climbing New York Center
Fri 10:28:27 AM 40.3158 -75.4175 229° Southwest 419 482 20,900 992 Climbing New York Center
Fri 10:29:28 AM 40.2447 -75.5325 231° Southwest 419 482 22,100 1,171 Climbing New York Center
Fri 10:30:30 AM 40.1778 -75.6367 230° Southwest 414 476 23,300 1,400 Climbing New York Center
Fri 10:31:28 AM 40.1067 -75.7428 229° Southwest 414 476 24,900 1,450 Climbing New York Center
Fri 10:32:30 AM 40.0353 -75.8517 229° Southwest 409 471 26,200 1,160 Climbing New York Center
Fri 10:33:27 AM 39.9661 -75.9603 230° Southwest 404 465 27,200 1,210 Climbing New York Center
Fri 10:34:29 AM 39.8944 -76.0661 229° Southwest 404 465 28,600 1,450 Climbing New York Center
Fri 10:35:27 AM 39.8231 -76.1714 229° Southwest 398 458 30,100 1,376 Climbing New York Center
Fri 10:37:06 AM 39.7114 -76.3414 230° Southwest 385 443 32,200 1,321 Climbing Washington Center
Fri 10:38:06 AM 39.6378 -76.4458 228° Southwest 385 443 33,600 1,240 Climbing Washington Center
Fri 10:39:07 AM 39.5597 -76.5633 229° Southwest 385 443 34,700 1,033 Climbing Washington Center
Fri 10:40:08 AM 39.4922 -76.6644 229° Southwest 385 443 35,700 992 Climbing Washington Center
Fri 10:41:08 AM 39.4225 -76.7708 230° Southwest 385 443 36,700 1,017 Climbing Washington Center
Fri 10:42:06 AM 39.3506 -76.8717 227° Southwest 385 443 37,700 650 Climbing Washington Center
Fri 10:43:08 AM 39.2828 -76.9753 230° Southwest 385 443 38,000 148 Climbing Washington Center
Fri 10:44:08 AM 39.2106 -77.0808 229° Southwest 385 443 38,000  Level Washington Center
Fri 10:45:08 AM 39.1383 -77.1839 228° Southwest 390 449 38,000  Level Washington Center
Fri 10:46:06 AM 39.0661 -77.2892 229° Southwest 390 449 38,000  Level Washington Center
Fri 10:47:06 AM 38.9958 -77.3917 229° Southwest 390 449 38,000  Level Washington Center
Fri 10:48:07 AM 38.9256 -77.4914 228° Southwest 384 442 38,000  Level Washington Center
Fri 10:49:08 AM 38.8572 -77.5908 229° Southwest 390 449 38,000  Level Washington Center
Fri 10:50:08 AM 38.7781 -77.7033 228° Southwest 395 455 38,000  Level Washington Center
Fri 10:51:06 AM 38.7075 -77.8078 229° Southwest 407 468 38,000  Level Washington Center
Fri 10:52:07 AM 38.6367 -77.9092 228° Southwest 407 468 38,000  Level Washington Center
Fri 10:53:07 AM 38.5617 -78.0183 229° Southwest 407 468 38,000  Level Washington Center
Fri 10:54:06 AM 38.4864 -78.1275 229° Southwest 407 468 38,000  Level Washington Center
Fri 10:55:07 AM 38.4089 -78.2361 228° Southwest 413 475 38,000  Level Washington Center
Fri 10:56:07 AM 38.3336 -78.3444 228° Southwest 413 475 38,000  Level Washington Center
Fri 10:57:08 AM 38.2558 -78.4553 228° Southwest 413 475 38,000  Level Washington Center
Fri 10:58:08 AM 38.1739 -78.5736 229° Southwest 413 475 38,000  Level Washington Center
Fri 10:59:08 AM 38.0936 -78.6867 228° Southwest 419 482 38,000  Level Washington Center
Fri 11:00:08 AM 38.0136 -78.7967 227° Southwest 426 490 38,000  Level Washington Center
Fri 11:01:06 AM 37.9314 -78.9092 227° Southwest 431 496 38,000  Level Washington Center
Fri 11:02:07 AM 37.8597 -79.0139 229° Southwest 439 505 38,000  Level Washington Center
Fri 11:03:07 AM 37.7750 -79.1228 225° Southwest 439 505 38,000  Level Washington Center
Fri 11:04:07 AM 37.6881 -79.2475 229° Southwest 439 505 38,000  Level Washington Center
Fri 11:05:08 AM 37.6117 -79.3486 226° Southwest 444 511 38,000  Level Washington Center
Fri 11:06:06 AM 37.5225 -79.4700 227° Southwest 444 511 38,000  Level Washington Center
Fri 11:07:08 AM 37.4569 -79.5608 228° Southwest 449 517 38,000  Level Washington Center
Fri 11:08:06 AM 37.3586 -79.6864 225° Southwest 449 517 38,000  Level Washington Center
Fri 11:09:06 AM 37.2733 -79.8044 228° Southwest 444 511 38,000  Level Washington Center
Fri 11:10:53 AM 37.1242 -79.9989 226° Southwest 455 524 38,000  Level Atlanta Center
Fri 11:11:53 AM 37.0422 -80.1072 227° Southwest 444 511 38,000  Level Atlanta Center
Fri 11:12:53 AM 36.9703 -80.2042 227° Southwest 434 499 38,000  Level Atlanta Center
Fri 11:13:53 AM 36.8900 -80.3119 227° Southwest 434 499 38,000  Level Atlanta Center
Fri 11:14:53 AM 36.8078 -80.4194 226° Southwest 434 499 38,000  Level Atlanta Center
Fri 11:15:53 AM 36.7194 -80.5375 227° Southwest 434 499 38,000  Level Atlanta Center
Fri 11:16:53 AM 36.6469 -80.6311 226° Southwest 428 493 38,000  Level Atlanta Center
Fri 11:17:53 AM 36.5644 -80.7406 227° Southwest 428 493 38,000  Level Atlanta Center
Fri 11:18:53 AM 36.4861 -80.8444 227° Southwest 428 493 38,000  Level Atlanta Center
Fri 11:19:53 AM 36.4011 -80.9539 226° Southwest 434 499 38,000  Level Atlanta Center
Fri 11:20:53 AM 36.3122 -81.0681 226° Southwest 434 499 38,000  Level Atlanta Center
Fri 11:21:53 AM 36.2333 -81.1764 228° Southwest 434 499 38,000 -550 Level Atlanta Center
Fri 11:22:53 AM 36.1525 -81.2822 227° Southwest 428 493 36,900 -1,150 Descending Atlanta Center
Fri 11:23:53 AM 36.0692 -81.3853 225° Southwest 428 493 35,700 -1,200 Descending Atlanta Center
Fri 11:24:53 AM 35.9903 -81.4931 228° Southwest 433 498 34,500 -1,100 Descending Atlanta Center
Fri 11:25:53 AM 35.9067 -81.5956 225° Southwest 433 498 33,500 -950 Descending Atlanta Center
Fri 11:26:53 AM 35.8275 -81.7081 229° Southwest 433 498 32,600 -750 Descending Atlanta Center
Fri 11:27:53 AM 35.7589 -81.8278 235° Southwest 433 498 32,000 -300 Descending Atlanta Center
Fri 11:28:53 AM 35.6708 -81.9272 223° Southwest 433 498 32,000  Level Atlanta Center
Fri 11:29:53 AM 35.5892 -82.0314 226° Southwest 428 493 32,000  Level Atlanta Center
Fri 11:30:53 AM 35.5053 -82.1331 225° Southwest 428 493 32,000 -700 Level Atlanta Center
Fri 11:31:53 AM 35.4214 -82.2369 225° Southwest 423 487 30,600 -1,750 Descending Atlanta Center
Fri 11:32:53 AM 35.3372 -82.3406 225° Southwest 428 493 28,500 -2,200 Descending Atlanta Center
Fri 11:33:53 AM 35.2550 -82.4389 224° Southwest 423 487 26,200 -1,900 Descending Atlanta Center
Fri 11:34:53 AM 35.1811 -82.5294 225° Southwest 423 487 24,700 -1,250 Descending Atlanta Center
Fri 11:35:53 AM 35.0967 -82.6300 224° Southwest 423 487 23,700 -1,300 Descending Atlanta Center
Fri 11:36:53 AM 35.0186 -82.7225 224° Southwest 417 480 22,100 -1,700 Descending Atlanta Center
Fri 11:37:53 AM 34.9361 -82.8200 224° Southwest 412 474 20,300 -1,800 Descending Atlanta Center
Fri 11:38:53 AM 34.8578 -82.9175 226° Southwest 406 467 18,500 -1,500 Descending Atlanta Center
Fri 11:39:53 AM 34.7814 -83.0094 225° Southwest 390 449 17,300 -1,400 Descending Atlanta Center
Fri 11:40:53 AM 34.7047 -83.0964 223° Southwest 384 442 15,700 -1,500 Descending Atlanta Center
Fri 11:41:53 AM 34.6367 -83.1856 227° Southwest 374 430 14,300 -1,450 Descending Atlanta Center
Fri 11:42:53 AM 34.5661 -83.2694 224° Southwest 345 397 12,800 -1,650 Descending Atlanta Center
Fri 11:43:53 AM 34.5081 -83.3381 224° Southwest 312 359 11,000 -1,850 Descending Atlanta Center
Fri 11:44:53 AM 34.4564 -83.3989 224° Southwest 289 333 9,100 -1,850 Descending Atlanta Center
Fri 11:45:53 AM 34.4003 -83.4622 223° Southwest 284 327 7,300 -1,050 Descending Atlanta Center
Fri 11:46:53 AM 34.3506 -83.5231 225° Southwest 264 304 7,000 -400 Descending Atlanta Center
Fri 11:47:53 AM 34.3047 -83.5836 228° Southwest 258 297 6,500 -500 Descending Atlanta Center
Fri 11:48:53 AM 34.2569 -83.6392 224° Southwest 252 290 6,000 -250 Descending Atlanta Center
Fri 11:49:53 AM 34.2069 -83.6997 225° Southwest 247 284 6,000  Level Atlanta Center
Fri 11:50:53 AM 34.1675 -83.7650 234° Southwest 247 284 6,000  Level Atlanta Center
Fri 11:51:53 AM 34.1447 -83.8331 248° West 247 284 6,000 -50 Level Atlanta Center
Fri 11:52:53 AM 34.1219 -83.8958 246° West 233 268 5,900 -550 Descending Atlanta Center
Fri 11:53:53 AM 34.0758 -83.9308 212° Southwest 199 229 4,900 -1,452 Descending Atlanta Center
Fri 11:54:57 AM 34.0167 -83.9667 207° Southwest 186 214 2,900 -1,154 Descending Atlanta TRACON
Fri 11:56:03 AM 34.0000 -84.0167 248° West 169 194 2,400 -600 Descending Atlanta TRACON
Fri 11:56:57 AM 33.9667 -84.0000 157° South 137 158 1,700 -778 Descending Atlanta TRACON
Fri 11:58:00 AM 33.9781 -83.9624 203° Southwest  Level Estimated
Fri 12:05:00 PM 33.9781 -83.9624 203° Southwest  Level Estimated

Login

Don't have an account? Register now (free) for customized features, flight alerts, and more!